createdAt,value
2023-02-05T00:00:18.557Z,0.20
2023-02-05T00:01:20.347Z,0.40
2023-02-05T00:02:22.188Z,0.30
2023-02-05T00:03:24.109Z,0.30
2023-02-05T00:04:25.937Z,0.30
2023-02-05T00:05:27.773Z,0.40
2023-02-05T00:06:29.772Z,0.30
2023-02-05T00:07:31.549Z,0.40
2023-02-05T00:08:34.823Z,0.47
2023-02-05T00:09:36.944Z,0.30
2023-02-05T00:10:38.830Z,0.38
2023-02-05T00:11:40.867Z,0.30
2023-02-05T00:12:42.717Z,0.50
2023-02-05T00:13:44.820Z,0.30
2023-02-05T00:14:46.616Z,0.38
2023-02-05T00:15:48.399Z,0.30
2023-02-05T00:16:51.343Z,0.30
2023-02-05T00:17:53.200Z,0.40
2023-02-05T00:18:56.513Z,0.47
2023-02-05T00:19:58.361Z,0.50
2023-02-05T00:21:00.144Z,0.30
2023-02-05T00:22:01.923Z,0.30
2023-02-05T00:23:04.057Z,0.40
2023-02-05T00:24:06.057Z,0.47
2023-02-05T00:25:08.400Z,0.30
2023-02-05T00:26:10.848Z,0.40
2023-02-05T00:27:12.726Z,0.70
2023-02-05T00:28:14.717Z,0.40
2023-02-05T00:29:16.558Z,0.25
2023-02-05T00:30:18.694Z,0.50
2023-02-05T00:31:22.381Z,0.43
2023-02-05T00:32:24.245Z,0.40
2023-02-05T00:33:26.456Z,0.40
2023-02-05T00:34:28.258Z,0.43
2023-02-05T00:35:30.041Z,0.45
2023-02-05T00:36:31.879Z,0.40
2023-02-05T00:37:33.803Z,0.40
2023-02-05T00:38:36.368Z,0.30
2023-02-05T00:39:38.261Z,0.30
2023-02-05T00:40:40.100Z,0.50
2023-02-05T00:41:44.489Z,0.35
2023-02-05T00:42:46.310Z,0.38
2023-02-05T00:43:48.116Z,0.30
2023-02-05T00:44:49.972Z,0.30
2023-02-05T00:45:51.837Z,0.30
2023-02-05T00:46:54.291Z,0.32
2023-02-05T00:47:56.126Z,0.40
2023-02-05T00:48:57.998Z,0.38
2023-02-05T00:50:00.198Z,0.40
2023-02-05T00:51:02.296Z,0.50
2023-02-05T00:52:05.178Z,0.20
2023-02-05T00:53:07.413Z,0.20
2023-02-05T00:54:09.938Z,0.43
2023-02-05T00:55:11.706Z,0.30
2023-02-05T00:56:13.584Z,0.30
2023-02-05T00:57:15.577Z,0.38
2023-02-05T00:58:17.416Z,0.30
2023-02-05T00:59:19.194Z,0.45
2023-02-05T01:00:21.209Z,0.30
2023-02-05T01:01:23.131Z,0.30
2023-02-05T01:02:25.325Z,0.40
2023-02-05T01:03:27.425Z,0.30
2023-02-05T01:04:29.207Z,0.35
2023-02-05T01:05:31.183Z,0.38
2023-02-05T01:06:33.137Z,0.50
2023-02-05T01:07:34.979Z,0.40
2023-02-05T01:08:37.043Z,0.30
2023-02-05T01:09:39.489Z,0.30
2023-02-05T01:10:46.312Z,0.28
2023-02-05T01:11:48.111Z,0.40
2023-02-05T01:12:50.857Z,0.40
2023-02-05T01:13:52.625Z,0.40
2023-02-05T01:14:54.523Z,0.30
2023-02-05T01:15:56.403Z,0.40
2023-02-05T01:16:58.238Z,0.40
2023-02-05T01:18:00.977Z,0.43
2023-02-05T01:19:02.911Z,0.40
2023-02-05T01:20:06.032Z,0.40
2023-02-05T01:21:07.898Z,0.30
2023-02-05T01:22:11.559Z,0.40
2023-02-05T01:23:13.407Z,0.47
2023-02-05T01:24:15.308Z,0.30
2023-02-05T01:25:17.304Z,0.35
2023-02-05T01:26:20.045Z,0.50
2023-02-05T01:27:21.930Z,0.40
2023-02-05T01:28:23.771Z,0.40
2023-02-05T01:29:27.870Z,0.35
2023-02-05T01:30:31.260Z,0.40
2023-02-05T01:31:33.710Z,0.40
2023-02-05T01:32:35.804Z,0.57
2023-02-05T01:33:37.589Z,0.57
2023-02-05T01:34:39.388Z,0.40
2023-02-05T01:35:42.459Z,0.40
2023-02-05T01:36:44.388Z,0.40
2023-02-05T01:37:46.153Z,0.45
2023-02-05T01:38:48.949Z,0.55
2023-02-05T01:39:50.861Z,0.55
2023-02-05T01:40:52.697Z,0.50
2023-02-05T01:41:54.721Z,0.30
2023-02-05T01:42:56.556Z,0.40
2023-02-05T01:44:24.451Z,0.40
2023-02-05T01:45:26.217Z,0.60
2023-02-05T01:46:29.976Z,0.43
2023-02-05T01:47:32.148Z,0.60
2023-02-05T01:48:42.562Z,0.50
2023-02-05T01:49:44.421Z,0.40
2023-02-05T01:50:51.392Z,0.60
2023-02-05T01:51:55.257Z,0.40
2023-02-05T01:53:00.256Z,0.50
2023-02-05T01:54:02.404Z,0.50
2023-02-05T01:55:07.590Z,0.40
2023-02-05T01:56:21.926Z,0.60
2023-02-05T01:57:25.364Z,0.63
2023-02-05T01:58:32.580Z,0.50
2023-02-05T01:59:38.987Z,0.40
2023-02-05T02:00:40.892Z,0.47
2023-02-05T02:01:43.875Z,0.32
2023-02-05T02:02:46.212Z,0.57
2023-02-05T02:03:50.446Z,0.30
2023-02-05T02:05:01.065Z,0.40
2023-02-05T02:06:05.028Z,0.30
2023-02-05T02:07:09.944Z,0.40
2023-02-05T02:08:13.188Z,0.40
2023-02-05T02:09:15.093Z,0.40
2023-02-05T02:10:19.300Z,0.47
2023-02-05T02:11:24.194Z,0.57
2023-02-05T02:12:30.571Z,0.35
2023-02-05T02:13:36.317Z,0.25
2023-02-05T02:14:42.929Z,0.50
2023-02-05T02:15:45.454Z,0.57
2023-02-05T02:16:47.672Z,0.55
2023-02-05T02:17:53.826Z,0.60
2023-02-05T02:18:56.222Z,0.75
2023-02-05T02:20:03.299Z,0.30
2023-02-05T02:21:19.721Z,0.50
2023-02-05T02:22:52.301Z,0.40
2023-02-05T02:24:14.520Z,0.40
2023-02-05T02:25:28.248Z,0.40
2023-02-05T02:26:48.817Z,0.60
2023-02-05T02:27:53.809Z,0.65
2023-02-05T02:29:02.532Z,0.60
2023-02-05T02:30:34.301Z,0.60
2023-02-05T02:31:44.262Z,0.45
2023-02-05T02:33:01.260Z,0.32
2023-02-05T02:34:18.353Z,0.70
2023-02-05T02:35:28.113Z,0.60
2023-02-05T02:36:30.014Z,0.50
2023-02-05T02:37:49.380Z,0.50
2023-02-05T02:39:00.746Z,0.50
2023-02-05T02:40:11.956Z,0.38
2023-02-05T02:41:17.086Z,0.50
2023-02-05T02:42:25.782Z,0.50
2023-02-05T02:44:10.189Z,0.40
2023-02-05T02:45:14.595Z,0.50
2023-02-05T02:46:48.637Z,0.40
2023-02-05T02:47:58.028Z,0.65
2023-02-05T02:49:05.328Z,0.60
2023-02-05T02:50:19.068Z,0.40
2023-02-05T02:51:25.234Z,0.52
2023-02-05T02:52:30.222Z,0.60
2023-02-05T02:53:38.457Z,0.50
2023-02-05T02:54:45.080Z,0.80
2023-02-05T02:55:49.595Z,0.70
2023-02-05T02:56:54.639Z,0.57
2023-02-05T02:57:57.592Z,0.50
2023-02-05T02:59:10.333Z,0.60
2023-02-05T03:00:20.241Z,0.50
2023-02-05T03:01:25.716Z,0.52
2023-02-05T03:02:32.082Z,0.40
2023-02-05T03:03:40.956Z,0.68
2023-02-05T03:04:55.471Z,0.50
2023-02-05T03:06:01.024Z,0.40
2023-02-05T03:07:15.844Z,0.70
2023-02-05T03:08:25.019Z,0.40
2023-02-05T03:09:58.320Z,0.45
2023-02-05T03:11:10.703Z,0.50
2023-02-05T03:12:12.873Z,0.40
2023-02-05T03:13:15.563Z,0.30
2023-02-05T03:14:22.777Z,0.40
2023-02-05T03:15:25.072Z,0.50
2023-02-05T03:16:28.011Z,0.60
2023-02-05T03:17:30.636Z,0.60
2023-02-05T03:18:33.312Z,0.40
2023-02-05T03:19:35.462Z,0.60
2023-02-05T03:20:45.725Z,0.40
2023-02-05T03:21:56.632Z,0.40
2023-02-05T03:22:58.484Z,0.55
2023-02-05T03:24:00.627Z,0.52
2023-02-05T03:25:04.236Z,0.75
2023-02-05T03:26:32.478Z,0.70
2023-02-05T03:27:57.852Z,0.55
2023-02-05T03:29:08.786Z,0.60
2023-02-05T03:30:13.931Z,0.57
2023-02-05T03:32:03.808Z,0.63
2023-02-05T03:33:25.064Z,0.90
2023-02-05T03:34:55.027Z,0.88
2023-02-05T03:36:12.753Z,0.85
2023-02-05T03:37:36.492Z,1.00
2023-02-05T03:39:01.381Z,1.25
2023-02-05T03:40:38.448Z,1.20
2023-02-05T03:41:58.112Z,1.23
2023-02-05T03:43:39.553Z,1.08
2023-02-05T03:44:49.893Z,1.20
2023-02-05T03:46:27.524Z,1.20
2023-02-05T03:47:47.872Z,1.35
2023-02-05T03:49:01.666Z,1.15
2023-02-05T03:50:26.464Z,1.05
2023-02-05T03:51:44.478Z,1.10
2023-02-05T03:52:55.160Z,1.45
2023-02-05T03:54:05.984Z,1.40
2023-02-05T03:55:13.928Z,1.17
2023-02-05T03:56:26.063Z,1.52
2023-02-05T03:57:35.785Z,1.58
2023-02-05T03:58:44.244Z,1.77
2023-02-05T03:59:47.754Z,1.42
2023-02-05T04:00:50.602Z,1.45
2023-02-05T04:01:53.874Z,1.48
2023-02-05T04:02:55.932Z,1.70
2023-02-05T04:04:02.478Z,1.50
2023-02-05T04:05:05.250Z,1.75
2023-02-05T04:06:07.722Z,1.70
2023-02-05T04:07:10.513Z,1.60
2023-02-05T04:08:13.536Z,1.60
2023-02-05T04:09:20.243Z,1.50
2023-02-05T04:10:22.124Z,1.70
2023-02-05T04:11:25.009Z,1.90
2023-02-05T04:12:28.279Z,1.38
2023-02-05T04:13:30.481Z,1.42
2023-02-05T04:14:33.200Z,1.92
2023-02-05T04:15:35.420Z,1.45
2023-02-05T04:16:41.329Z,1.20
2023-02-05T04:17:43.214Z,1.40
2023-02-05T04:18:45.413Z,1.40
2023-02-05T04:19:47.347Z,1.40
2023-02-05T04:20:50.856Z,1.70
2023-02-05T04:21:56.771Z,1.20
2023-02-05T04:22:59.216Z,1.23
2023-02-05T04:24:02.809Z,1.30
2023-02-05T04:25:05.055Z,1.40
2023-02-05T04:26:07.616Z,1.05
2023-02-05T04:27:16.229Z,0.93
2023-02-05T04:28:18.459Z,1.13
2023-02-05T04:29:20.386Z,0.85
2023-02-05T04:30:25.251Z,1.10
2023-02-05T04:31:27.376Z,0.77
2023-02-05T04:32:29.841Z,0.77
2023-02-05T04:33:32.094Z,0.80
2023-02-05T04:34:34.076Z,0.73
2023-02-05T04:35:36.498Z,0.88
2023-02-05T04:36:38.759Z,0.85
2023-02-05T04:37:40.696Z,0.65
2023-02-05T04:38:43.127Z,0.68
2023-02-05T04:39:45.011Z,0.77
2023-02-05T04:40:46.960Z,0.60
2023-02-05T04:41:48.748Z,0.63
2023-02-05T04:42:50.692Z,0.60
2023-02-05T04:43:52.512Z,0.70
2023-02-05T04:44:54.547Z,0.77
2023-02-05T04:45:56.422Z,0.73
2023-02-05T04:46:58.305Z,0.50
2023-02-05T04:48:00.797Z,0.60
2023-02-05T04:49:02.638Z,0.63
2023-02-05T04:50:04.914Z,0.82
2023-02-05T04:51:11.749Z,0.57
2023-02-05T04:52:13.573Z,0.47
2023-02-05T04:53:15.489Z,0.60
2023-02-05T04:54:17.253Z,0.50
2023-02-05T04:55:19.156Z,0.47
2023-02-05T04:56:21.031Z,0.60
2023-02-05T04:57:24.330Z,0.50
2023-02-05T04:58:26.188Z,0.63
2023-02-05T04:59:30.053Z,0.55
2023-02-05T05:00:32.000Z,0.43
2023-02-05T05:01:34.037Z,0.47
2023-02-05T05:02:35.925Z,0.40
2023-02-05T05:03:37.738Z,0.50
2023-02-05T05:04:41.521Z,0.30
2023-02-05T05:05:44.708Z,0.30
2023-02-05T05:06:46.554Z,0.40
2023-02-05T05:07:48.880Z,0.50
2023-02-05T05:08:50.780Z,0.57
2023-02-05T05:09:52.697Z,0.40
2023-02-05T05:10:54.492Z,0.50
2023-02-05T05:11:56.558Z,0.40
2023-02-05T05:12:58.332Z,0.47
2023-02-05T05:14:00.198Z,0.30
2023-02-05T05:15:02.619Z,0.40
2023-02-05T05:16:06.116Z,0.43
2023-02-05T05:17:08.112Z,0.38
2023-02-05T05:18:09.950Z,0.40
2023-02-05T05:19:12.065Z,0.47
2023-02-05T05:20:13.877Z,0.30
2023-02-05T05:21:15.651Z,0.30
2023-02-05T05:22:17.489Z,0.32
2023-02-05T05:23:19.592Z,0.20
2023-02-05T05:24:21.501Z,0.30
2023-02-05T05:25:23.428Z,0.30
2023-02-05T05:26:25.264Z,0.35
2023-02-05T05:27:27.094Z,0.43
2023-02-05T05:28:32.909Z,0.32
2023-02-05T05:29:35.428Z,0.40
2023-02-05T05:30:41.700Z,0.35
2023-02-05T05:31:43.595Z,0.40
2023-02-05T05:32:45.428Z,0.30
2023-02-05T05:33:47.631Z,0.50
2023-02-05T05:34:49.407Z,0.40
2023-02-05T05:35:51.240Z,0.30
2023-02-05T05:36:53.718Z,0.40
2023-02-05T05:37:57.649Z,0.40
2023-02-05T05:39:19.449Z,0.50
2023-02-05T05:40:39.906Z,0.50
2023-02-05T05:42:11.200Z,0.40
2023-02-05T05:43:34.124Z,0.50
2023-02-05T05:44:35.995Z,0.20
2023-02-05T05:45:37.768Z,0.30
2023-02-05T05:46:39.538Z,0.30
2023-02-05T05:47:41.402Z,0.40
2023-02-05T05:48:43.229Z,0.40
2023-02-05T05:49:45.010Z,0.30
2023-02-05T05:50:46.930Z,0.30
2023-02-05T05:51:48.704Z,0.30
2023-02-05T05:52:50.540Z,0.30
2023-02-05T05:53:52.591Z,0.30
2023-02-05T05:54:54.415Z,0.50
2023-02-05T05:55:56.225Z,0.55
2023-02-05T05:56:57.992Z,0.50
2023-02-05T05:57:59.787Z,0.28
2023-02-05T05:59:01.737Z,0.25
2023-02-05T06:00:05.037Z,0.20
2023-02-05T06:01:16.167Z,0.35
2023-02-05T06:02:18.053Z,0.30
2023-02-05T06:03:22.253Z,0.38
2023-02-05T06:04:24.096Z,0.40
2023-02-05T06:05:26.068Z,0.32
2023-02-05T06:06:27.865Z,0.40
2023-02-05T06:07:29.730Z,0.30
2023-02-05T06:08:32.508Z,0.40
2023-02-05T06:09:34.280Z,0.30
2023-02-05T06:10:36.335Z,0.38
2023-02-05T06:11:38.318Z,0.40
2023-02-05T06:12:40.169Z,0.20
2023-02-05T06:13:42.064Z,0.30
2023-02-05T06:14:43.814Z,0.40
2023-02-05T06:15:45.877Z,0.45
2023-02-05T06:16:47.692Z,0.30
2023-02-05T06:17:49.527Z,0.40
2023-02-05T06:18:51.365Z,0.40
2023-02-05T06:19:53.300Z,0.40
2023-02-05T06:20:55.107Z,0.40
2023-02-05T06:21:56.877Z,0.30
2023-02-05T06:22:58.707Z,0.40
2023-02-05T06:24:00.477Z,0.30
2023-02-05T06:25:02.415Z,0.30
2023-02-05T06:26:04.357Z,0.35
2023-02-05T06:27:06.116Z,0.30
2023-02-05T06:28:07.938Z,0.30
2023-02-05T06:29:09.781Z,0.40
2023-02-05T06:30:12.246Z,0.25
2023-02-05T06:31:14.103Z,0.38
2023-02-05T06:32:15.989Z,0.35
2023-02-05T06:33:17.785Z,0.22
2023-02-05T06:34:19.603Z,0.20
2023-02-05T06:35:21.448Z,0.50
2023-02-05T06:36:23.625Z,0.43
2023-02-05T06:37:34.148Z,0.40
2023-02-05T06:38:47.695Z,0.20
2023-02-05T06:39:49.518Z,0.30
2023-02-05T06:40:51.276Z,0.40
2023-02-05T06:41:53.035Z,0.50
2023-02-05T06:42:55.155Z,0.40
2023-02-05T06:43:57.034Z,0.30
2023-02-05T06:44:58.840Z,0.40
2023-02-05T06:46:00.723Z,0.30
2023-02-05T06:47:02.643Z,0.38
2023-02-05T06:48:04.589Z,0.40
2023-02-05T06:49:06.358Z,0.35
2023-02-05T06:50:08.675Z,0.30
2023-02-05T06:51:10.494Z,0.20
2023-02-05T06:52:12.360Z,0.20
2023-02-05T06:53:14.282Z,0.30
2023-02-05T06:54:16.230Z,0.30
2023-02-05T06:55:19.165Z,0.30
2023-02-05T06:56:21.016Z,0.30
2023-02-05T06:57:22.793Z,0.40
2023-02-05T06:58:24.609Z,0.30
2023-02-05T06:59:26.377Z,0.30
2023-02-05T07:00:29.210Z,0.20
2023-02-05T07:01:31.611Z,0.40
2023-02-05T07:02:33.589Z,0.30
2023-02-05T07:03:35.440Z,0.22
2023-02-05T07:04:37.235Z,0.40
2023-02-05T07:05:38.988Z,0.50
2023-02-05T07:06:40.896Z,0.50
2023-02-05T07:07:42.671Z,0.50
2023-02-05T07:08:44.715Z,0.43
2023-02-05T07:09:46.754Z,0.28
2023-02-05T07:10:48.524Z,0.35
2023-02-05T07:11:50.311Z,0.20
2023-02-05T07:12:52.153Z,0.30
2023-02-05T07:13:53.976Z,0.38
2023-02-05T07:14:55.817Z,0.40
2023-02-05T07:15:57.744Z,0.20
2023-02-05T07:16:59.713Z,0.30
2023-02-05T07:18:01.551Z,0.28
2023-02-05T07:19:03.762Z,0.30
2023-02-05T07:20:05.968Z,0.30
2023-02-05T07:21:10.320Z,0.20
2023-02-05T07:22:15.797Z,0.20
2023-02-05T07:23:17.787Z,0.38
2023-02-05T07:24:19.643Z,0.20
2023-02-05T07:25:21.427Z,0.50
2023-02-05T07:26:23.953Z,0.30
2023-02-05T07:27:25.760Z,0.20
2023-02-05T07:28:27.533Z,0.30
2023-02-05T07:29:29.469Z,0.40
2023-02-05T07:30:31.355Z,0.30
2023-02-05T07:31:33.382Z,0.38
2023-02-05T07:32:35.265Z,0.40
2023-02-05T07:33:37.825Z,0.25
2023-02-05T07:34:39.649Z,0.25
2023-02-05T07:35:41.508Z,0.40
2023-02-05T07:36:43.489Z,0.47
2023-02-05T07:37:45.341Z,0.40
2023-02-05T07:38:47.645Z,0.30
2023-02-05T07:39:49.608Z,0.30
2023-02-05T07:40:51.615Z,0.43
2023-02-05T07:41:53.661Z,0.30
2023-02-05T07:43:03.064Z,0.32
2023-02-05T07:44:04.913Z,0.28
2023-02-05T07:45:07.592Z,0.30
2023-02-05T07:46:12.852Z,0.30
2023-02-05T07:47:14.761Z,0.40
2023-02-05T07:48:16.504Z,0.30
2023-02-05T07:49:18.285Z,0.20
2023-02-05T07:50:20.121Z,0.30
2023-02-05T07:51:24.263Z,0.30
2023-02-05T07:52:26.189Z,0.40
2023-02-05T07:53:28.382Z,0.30
2023-02-05T07:54:30.192Z,0.30
2023-02-05T07:55:32.125Z,0.30
2023-02-05T07:56:34.022Z,0.20
2023-02-05T07:57:35.897Z,0.50
2023-02-05T07:58:37.771Z,0.30
2023-02-05T07:59:39.645Z,0.25
2023-02-05T08:00:42.167Z,0.30
2023-02-05T08:01:44.032Z,0.40
2023-02-05T08:02:45.888Z,0.40
2023-02-05T08:03:47.723Z,0.40
2023-02-05T08:04:49.508Z,0.20
2023-02-05T08:05:51.315Z,0.40
2023-02-05T08:06:53.193Z,0.50
2023-02-05T08:07:55.015Z,0.30
2023-02-05T08:08:57.537Z,0.40
2023-02-05T08:09:59.506Z,0.30
2023-02-05T08:11:04.192Z,0.35
2023-02-05T08:12:06.720Z,0.40
2023-02-05T08:13:08.516Z,0.50
2023-02-05T08:14:10.406Z,0.30
2023-02-05T08:15:12.161Z,0.30
2023-02-05T08:16:18.087Z,0.30
2023-02-05T08:17:19.968Z,0.30
2023-02-05T08:18:22.458Z,0.25
2023-02-05T08:19:25.104Z,0.30
2023-02-05T08:20:26.969Z,0.30
2023-02-05T08:21:28.799Z,0.40
2023-02-05T08:22:30.589Z,0.30
2023-02-05T08:23:32.624Z,0.50
2023-02-05T08:24:34.445Z,0.40
2023-02-05T08:25:36.662Z,0.30
2023-02-05T08:26:39.810Z,0.30
2023-02-05T08:27:42.683Z,0.40
2023-02-05T08:28:44.876Z,0.40
2023-02-05T08:29:49.053Z,0.47
2023-02-05T08:30:51.267Z,0.40
2023-02-05T08:31:53.565Z,0.50
2023-02-05T08:32:55.359Z,0.40
2023-02-05T08:34:00.050Z,0.22
2023-02-05T08:35:02.013Z,0.35
2023-02-05T08:36:03.992Z,0.40
2023-02-05T08:37:05.877Z,0.40
2023-02-05T08:38:07.713Z,0.50
2023-02-05T08:39:09.588Z,0.55
2023-02-05T08:40:11.895Z,0.55
2023-02-05T08:41:13.716Z,0.32
2023-02-05T08:42:15.497Z,0.50
2023-02-05T08:43:17.473Z,0.30
2023-02-05T08:44:19.269Z,0.45
2023-02-05T08:45:21.311Z,0.40
2023-02-05T08:46:33.855Z,0.40
2023-02-05T08:47:45.974Z,0.40
2023-02-05T08:48:48.637Z,0.50
2023-02-05T08:49:50.528Z,0.50
2023-02-05T08:50:52.317Z,0.45
2023-02-05T08:51:54.272Z,0.40
2023-02-05T08:52:56.189Z,0.40
2023-02-05T08:53:57.957Z,0.50
2023-02-05T08:54:59.904Z,0.40
2023-02-05T08:56:04.520Z,0.60
2023-02-05T08:57:06.288Z,0.60
2023-02-05T08:58:08.695Z,0.50
2023-02-05T08:59:11.668Z,0.52
2023-02-05T09:00:15.232Z,0.47
2023-02-05T09:01:17.585Z,0.45
2023-02-05T09:02:19.461Z,0.47
2023-02-05T09:03:21.294Z,0.70
2023-02-05T09:04:23.615Z,0.50
2023-02-05T09:05:25.454Z,0.60
2023-02-05T09:06:27.341Z,0.50
2023-02-05T09:07:30.805Z,0.43
2023-02-05T09:08:32.969Z,0.55
2023-02-05T09:09:38.447Z,0.80
2023-02-05T09:10:44.605Z,0.73
2023-02-05T09:11:47.830Z,0.50
2023-02-05T09:12:49.924Z,0.40
2023-02-05T09:13:51.684Z,0.32
2023-02-05T09:14:53.466Z,0.50
2023-02-05T09:15:55.408Z,0.50
2023-02-05T09:16:57.230Z,0.90
2023-02-05T09:17:59.024Z,0.50
2023-02-05T09:19:01.369Z,0.63
2023-02-05T09:20:03.964Z,0.50
2023-02-05T09:21:10.632Z,0.70
2023-02-05T09:22:12.877Z,0.90
2023-02-05T09:23:17.416Z,0.70
2023-02-05T09:24:19.206Z,1.10
2023-02-05T09:25:21.011Z,0.70
2023-02-05T09:26:23.420Z,0.68
2023-02-05T09:27:25.238Z,1.05
2023-02-05T09:28:27.214Z,0.43
2023-02-05T09:29:29.930Z,0.52
2023-02-05T09:30:31.818Z,0.60
2023-02-05T09:31:33.769Z,0.80
2023-02-05T09:32:35.696Z,0.73
2023-02-05T09:33:37.756Z,0.70
2023-02-05T09:34:39.727Z,0.80
2023-02-05T09:35:42.287Z,0.88
2023-02-05T09:36:44.142Z,0.60
2023-02-05T09:37:45.961Z,0.60
2023-02-05T09:38:48.812Z,0.73
2023-02-05T09:40:19.302Z,0.88
2023-02-05T09:41:15.145Z,0.60
2023-02-05T09:42:41.333Z,0.73
2023-02-05T09:43:46.112Z,0.80
2023-02-05T09:45:21.623Z,0.60
2023-02-05T09:46:45.322Z,0.95
2023-02-05T09:48:28.825Z,0.85
2023-02-05T09:49:38.787Z,0.75
2023-02-05T09:50:42.351Z,0.85
2023-02-05T09:51:48.011Z,0.90
2023-02-05T09:52:53.657Z,0.93
2023-02-05T09:54:00.318Z,1.10
2023-02-05T09:55:10.905Z,0.80
2023-02-05T09:56:14.784Z,0.73
2023-02-05T09:57:31.605Z,0.80
2023-02-05T09:58:37.987Z,0.93
2023-02-05T09:59:44.334Z,0.80
2023-02-05T10:00:50.126Z,0.93
2023-02-05T10:02:05.806Z,0.98
2023-02-05T10:03:34.457Z,1.13
2023-02-05T10:04:36.370Z,0.93
2023-02-05T10:05:54.884Z,1.02
2023-02-05T10:07:15.842Z,1.10
2023-02-05T10:08:29.700Z,1.00
2023-02-05T10:09:34.479Z,0.98
2023-02-05T10:10:47.935Z,1.08
2023-02-05T10:12:11.190Z,0.90
2023-02-05T10:13:41.367Z,1.17
2023-02-05T10:14:47.831Z,1.17
2023-02-05T10:16:10.819Z,0.80
2023-02-05T10:17:24.796Z,1.00
2023-02-05T10:18:52.177Z,0.93
2023-02-05T10:20:31.345Z,1.48
2023-02-05T10:21:56.633Z,0.88
2023-02-05T10:22:58.463Z,1.00
2023-02-05T10:24:18.617Z,1.02
2023-02-05T10:25:45.698Z,1.02
2023-02-05T10:26:52.855Z,1.00
2023-02-05T10:28:19.288Z,1.13
2023-02-05T10:29:26.824Z,1.25
2023-02-05T10:30:44.119Z,1.27
2023-02-05T10:31:55.007Z,1.20
2023-02-05T10:33:07.408Z,1.52
2023-02-05T10:34:46.480Z,1.50
2023-02-05T10:36:10.016Z,1.38
2023-02-05T10:37:18.642Z,1.30
2023-02-05T10:38:25.704Z,1.30
2023-02-05T10:39:30.292Z,1.45
2023-02-05T10:40:39.358Z,1.40
2023-02-05T10:41:50.533Z,1.40
2023-02-05T10:43:00.396Z,1.27
2023-02-05T10:44:15.008Z,1.38
2023-02-05T10:45:26.864Z,1.20
2023-02-05T10:46:33.594Z,1.77
2023-02-05T10:48:03.717Z,1.40
2023-02-05T10:49:23.979Z,1.70
2023-02-05T10:51:02.719Z,1.77
2023-02-05T10:52:04.696Z,1.35
2023-02-05T10:53:06.685Z,1.30
2023-02-05T10:54:23.650Z,1.60
2023-02-05T10:55:25.517Z,1.42
2023-02-05T10:56:27.462Z,1.73
2023-02-05T10:57:36.355Z,1.33
2023-02-05T10:58:58.298Z,1.95
2023-02-05T11:00:07.126Z,1.90
2023-02-05T11:01:18.298Z,1.50
2023-02-05T11:02:21.298Z,1.88
2023-02-05T11:03:23.739Z,1.58
2023-02-05T11:04:35.061Z,1.65
2023-02-05T11:05:41.332Z,1.95
2023-02-05T11:06:47.929Z,1.58
2023-02-05T11:07:52.301Z,1.67
2023-02-05T11:08:54.297Z,1.67
2023-02-05T11:09:57.905Z,1.63
2023-02-05T11:10:59.747Z,2.28
2023-02-05T11:12:05.040Z,1.83
2023-02-05T11:13:18.994Z,1.88
2023-02-05T11:14:28.413Z,2.08
2023-02-05T11:15:32.942Z,1.55
2023-02-05T11:16:41.748Z,1.52
2023-02-05T11:17:44.118Z,1.65
2023-02-05T11:18:54.716Z,1.95
2023-02-05T11:20:02.980Z,1.98
2023-02-05T11:21:08.731Z,1.83
2023-02-05T11:22:28.347Z,1.98
2023-02-05T11:23:32.226Z,1.38
2023-02-05T11:24:41.760Z,1.98
2023-02-05T11:26:01.437Z,1.48
2023-02-05T11:27:15.598Z,1.52
2023-02-05T11:28:24.483Z,1.55
2023-02-05T11:29:26.421Z,1.80
2023-02-05T11:30:52.665Z,2.00
2023-02-05T11:31:54.866Z,1.70
2023-02-05T11:32:57.393Z,1.70
2023-02-05T11:34:08.057Z,1.90
2023-02-05T11:35:32.270Z,1.73
2023-02-05T11:36:35.615Z,1.70
2023-02-05T11:37:40.493Z,1.92
2023-02-05T11:38:49.064Z,2.05
2023-02-05T11:39:54.887Z,1.70
2023-02-05T11:41:02.885Z,1.95
2023-02-05T11:42:32.085Z,1.50
2023-02-05T11:43:35.112Z,1.63
2023-02-05T11:44:53.605Z,2.10
2023-02-05T11:45:58.183Z,1.77
2023-02-05T11:47:01.892Z,1.73
2023-02-05T11:48:20.996Z,1.95
2023-02-05T11:49:30.324Z,2.00
2023-02-05T11:50:33.527Z,1.85
2023-02-05T11:51:43.006Z,1.73
2023-02-05T11:52:44.876Z,2.03
2023-02-05T11:53:56.010Z,2.15
2023-02-05T11:54:58.027Z,1.92
2023-02-05T11:56:05.022Z,1.88
2023-02-05T11:57:19.773Z,2.05
2023-02-05T11:58:37.615Z,1.63
2023-02-05T11:59:40.160Z,1.52
2023-02-05T12:00:57.550Z,1.75
2023-02-05T12:02:29.985Z,1.92
2023-02-05T12:03:33.433Z,1.45
2023-02-05T12:04:47.013Z,2.13
2023-02-05T12:06:15.753Z,2.40
2023-02-05T12:07:20.372Z,1.70
2023-02-05T12:08:22.168Z,1.58
2023-02-05T12:09:27.485Z,1.65
2023-02-05T12:10:50.237Z,1.63
2023-02-05T12:12:18.643Z,1.42
2023-02-05T12:14:06.878Z,1.65
2023-02-05T12:15:19.806Z,1.67
2023-02-05T12:16:53.545Z,1.80
2023-02-05T12:18:12.425Z,1.98
2023-02-05T12:19:22.233Z,2.00
2023-02-05T12:20:33.517Z,1.35
2023-02-05T12:22:04.300Z,2.00
2023-02-05T12:23:23.607Z,1.60
2023-02-05T12:24:52.652Z,1.77
2023-02-05T12:26:01.205Z,1.45
2023-02-05T12:27:34.368Z,1.80
2023-02-05T12:29:08.343Z,1.98
2023-02-05T12:30:30.960Z,1.85
2023-02-05T12:31:56.981Z,1.83
2023-02-05T12:33:40.212Z,1.77
2023-02-05T12:34:56.810Z,1.80
2023-02-05T12:36:20.486Z,1.90
2023-02-05T12:38:08.928Z,2.15
2023-02-05T12:39:45.784Z,1.90
2023-02-05T12:41:06.800Z,1.80
2023-02-05T12:42:30.620Z,2.00
2023-02-05T12:43:45.225Z,1.75
2023-02-05T12:44:55.639Z,1.40
2023-02-05T12:46:36.183Z,1.85
2023-02-05T12:48:17.355Z,1.63
2023-02-05T12:49:34.484Z,1.88
2023-02-05T12:51:13.420Z,1.50
2023-02-05T12:52:33.909Z,1.70
2023-02-05T12:54:07.940Z,1.75
2023-02-05T12:55:45.185Z,1.80
2023-02-05T12:57:09.929Z,1.77
2023-02-05T12:58:14.781Z,2.03
2023-02-05T12:59:31.002Z,1.92
2023-02-05T13:00:40.573Z,2.10
2023-02-05T13:01:51.203Z,2.08
2023-02-05T13:03:22.074Z,1.88
2023-02-05T13:04:50.845Z,1.48
2023-02-05T13:06:02.131Z,2.10
2023-02-05T13:07:28.281Z,2.00
2023-02-05T13:08:53.602Z,2.05
2023-02-05T13:10:01.678Z,1.90
2023-02-05T13:11:17.151Z,2.08
2023-02-05T13:12:24.655Z,2.20
2023-02-05T13:13:39.699Z,2.13
2023-02-05T13:14:48.292Z,2.05
2023-02-05T13:16:01.313Z,2.20
2023-02-05T13:17:11.048Z,1.85
2023-02-05T13:18:16.073Z,2.00
2023-02-05T13:19:34.068Z,1.80
2023-02-05T13:21:00.002Z,1.63
2023-02-05T13:22:46.717Z,2.00
2023-02-05T13:24:08.700Z,1.60
2023-02-05T13:25:48.659Z,1.95
2023-02-05T13:27:09.539Z,1.85
2023-02-05T13:28:42.614Z,1.80
2023-02-05T13:29:51.567Z,1.83
2023-02-05T13:30:56.043Z,1.77
2023-02-05T13:32:15.621Z,1.88
2023-02-05T13:33:18.007Z,2.13
2023-02-05T13:34:20.222Z,1.77
2023-02-05T13:35:23.939Z,2.30
2023-02-05T13:36:27.251Z,1.73
2023-02-05T13:37:34.244Z,1.88
2023-02-05T13:38:42.109Z,1.85
2023-02-05T13:40:16.164Z,2.28
2023-02-05T13:41:25.538Z,1.80
2023-02-05T13:42:46.144Z,1.48
2023-02-05T13:44:09.408Z,1.55
2023-02-05T13:45:48.420Z,1.80
2023-02-05T13:47:24.117Z,1.77
2023-02-05T13:48:45.688Z,1.77
2023-02-05T13:49:58.849Z,2.15
2023-02-05T13:51:19.193Z,2.08
2023-02-05T13:52:39.458Z,1.77
2023-02-05T13:54:04.329Z,1.75
2023-02-05T13:55:23.854Z,2.35
2023-02-05T13:56:48.044Z,1.95
2023-02-05T13:58:19.463Z,1.83
2023-02-05T13:59:29.843Z,1.70
2023-02-05T14:00:32.759Z,1.85
2023-02-05T14:01:44.820Z,2.20
2023-02-05T14:02:49.590Z,2.13
2023-02-05T14:04:25.295Z,1.70
2023-02-05T14:05:32.742Z,2.20
2023-02-05T14:06:38.943Z,1.70
2023-02-05T14:07:49.702Z,1.52
2023-02-05T14:08:59.887Z,2.22
2023-02-05T14:10:02.730Z,2.28
2023-02-05T14:11:05.523Z,2.05
2023-02-05T14:12:24.009Z,1.48
2023-02-05T14:13:33.769Z,2.03
2023-02-05T14:14:41.113Z,2.10
2023-02-05T14:15:44.579Z,1.88
2023-02-05T14:16:49.687Z,1.50
2023-02-05T14:17:53.842Z,1.75
2023-02-05T14:19:01.782Z,1.65
2023-02-05T14:20:06.162Z,1.80
2023-02-05T14:21:29.743Z,1.92
2023-02-05T14:22:43.761Z,1.67
2023-02-05T14:23:49.127Z,1.90
2023-02-05T14:24:51.004Z,2.15
2023-02-05T14:26:11.436Z,2.40
2023-02-05T14:27:38.169Z,1.85
2023-02-05T14:28:48.605Z,1.67
2023-02-05T14:29:51.481Z,1.65
2023-02-05T14:31:01.414Z,1.92
2023-02-05T14:32:03.485Z,1.73
2023-02-05T14:33:26.585Z,1.67
2023-02-05T14:34:34.146Z,1.38
2023-02-05T14:35:40.297Z,1.90
2023-02-05T14:36:45.140Z,1.70
2023-02-05T14:37:50.051Z,2.05
2023-02-05T14:38:56.659Z,1.40
2023-02-05T14:39:59.705Z,1.80
2023-02-05T14:41:19.940Z,1.40
2023-02-05T14:42:22.693Z,1.90
2023-02-05T14:43:33.304Z,1.50
2023-02-05T14:44:38.785Z,1.30
2023-02-05T14:45:48.875Z,2.08
2023-02-05T14:47:08.420Z,1.73
2023-02-05T14:48:20.687Z,1.50
2023-02-05T14:49:26.407Z,1.65
2023-02-05T14:50:30.112Z,1.40
2023-02-05T14:51:39.430Z,1.75
2023-02-05T14:52:48.368Z,1.65
2023-02-05T14:54:17.666Z,1.90
2023-02-05T14:55:20.695Z,1.63
2023-02-05T14:56:47.148Z,1.55
2023-02-05T14:57:48.948Z,1.75
2023-02-05T14:59:17.803Z,1.85
2023-02-05T15:00:28.657Z,1.50
2023-02-05T15:01:33.437Z,1.40
2023-02-05T15:02:56.513Z,1.55